createdAt,value
2023-02-19T00:01:25.299Z,97600.47
2023-02-19T00:03:57.251Z,97532.94
2023-02-19T00:06:25.885Z,97577.84
2023-02-19T00:08:53.328Z,97646.06
2023-02-19T00:11:23.237Z,97572.16
2023-02-19T00:13:52.570Z,97661.16
2023-02-19T00:16:27.911Z,97467.00
2023-02-19T00:18:57.161Z,97636.81
2023-02-19T00:21:24.632Z,97618.38
2023-02-19T00:24:00.874Z,97633.69
2023-02-19T00:26:28.497Z,97526.94
2023-02-19T00:28:56.992Z,97631.97
2023-02-19T00:31:34.942Z,97622.81
2023-02-19T00:34:04.410Z,97634.97
2023-02-19T00:36:32.614Z,97645.41
2023-02-19T00:38:59.478Z,97634.38
2023-02-19T00:41:35.813Z,97558.13
2023-02-19T00:44:05.790Z,97639.59
2023-02-19T00:46:36.044Z,97616.72
2023-02-19T00:49:04.598Z,97653.50
2023-02-19T00:51:34.943Z,97580.78
2023-02-19T00:54:02.304Z,97647.47
2023-02-19T00:56:29.669Z,97593.47
2023-02-19T00:58:56.795Z,97644.53
2023-02-19T01:01:23.657Z,97559.66
2023-02-19T01:03:50.888Z,97627.34
2023-02-19T01:06:19.574Z,97657.44
2023-02-19T01:08:46.688Z,97613.69
2023-02-19T01:11:14.525Z,97665.50
2023-02-19T01:13:41.942Z,97599.16
2023-02-19T01:16:13.115Z,97656.97
2023-02-19T01:18:40.174Z,97601.25
2023-02-19T01:21:09.316Z,97372.88
2023-02-19T01:23:36.274Z,97635.03
2023-02-19T01:26:12.088Z,97646.91
2023-02-19T01:28:38.996Z,97671.16
2023-02-19T01:31:08.779Z,97623.47
2023-02-19T01:33:35.745Z,97649.28
2023-02-19T01:36:07.024Z,97647.63
2023-02-19T01:38:34.035Z,97661.81
2023-02-19T01:41:06.275Z,97663.28
2023-02-19T01:43:35.377Z,97662.00
2023-02-19T01:46:02.119Z,97682.31
2023-02-19T01:48:39.742Z,97686.97
2023-02-19T01:51:11.479Z,97664.63
2023-02-19T01:53:43.696Z,97505.00
2023-02-19T01:56:16.095Z,97678.56
2023-02-19T01:58:43.803Z,97548.59
2023-02-19T02:01:11.323Z,97649.19
2023-02-19T02:03:41.906Z,97663.53
2023-02-19T02:06:15.609Z,97674.53
2023-02-19T02:09:01.075Z,97634.00
2023-02-19T02:11:28.670Z,97537.63
2023-02-19T02:13:55.920Z,97577.47
2023-02-19T02:16:34.334Z,97643.97
2023-02-19T02:19:36.533Z,97651.28
2023-02-19T02:22:19.630Z,97658.50
2023-02-19T02:25:04.584Z,97672.97
2023-02-19T02:27:53.537Z,97661.72
2023-02-19T02:30:38.026Z,97668.13
2023-02-19T02:33:10.368Z,97677.28
2023-02-19T02:35:47.994Z,97619.09
2023-02-19T02:38:18.577Z,97421.88
2023-02-19T02:40:45.487Z,97592.03
2023-02-19T02:43:14.232Z,97652.03
2023-02-19T02:45:41.733Z,97562.38
2023-02-19T02:48:24.085Z,97693.13
2023-02-19T02:50:53.902Z,97684.25
2023-02-19T02:54:04.531Z,97683.41
2023-02-19T02:56:31.974Z,97610.84
2023-02-19T02:59:03.152Z,97643.31
2023-02-19T03:01:55.365Z,97691.09
2023-02-19T03:05:05.789Z,97539.53
2023-02-19T03:07:41.733Z,97681.78
2023-02-19T03:10:11.984Z,97587.81
2023-02-19T03:12:59.250Z,97640.03
2023-02-19T03:15:51.118Z,97701.44
2023-02-19T03:18:38.170Z,97707.41
2023-02-19T03:21:07.380Z,97666.84
2023-02-19T03:23:54.201Z,97699.03
2023-02-19T03:26:22.111Z,97644.69
2023-02-19T03:29:12.015Z,97696.38
2023-02-19T03:31:43.608Z,97706.00
2023-02-19T03:34:16.795Z,97666.22
2023-02-19T03:36:48.234Z,97684.28
2023-02-19T03:39:20.284Z,97665.03
2023-02-19T03:41:58.940Z,97714.13
2023-02-19T03:44:53.484Z,97728.66
2023-02-19T03:47:30.457Z,97683.78
2023-02-19T03:49:57.343Z,97718.16
2023-02-19T03:52:30.540Z,97738.63
2023-02-19T03:55:20.615Z,97719.19
2023-02-19T03:57:54.166Z,97634.38
2023-02-19T04:00:37.015Z,97705.00
2023-02-19T04:03:35.964Z,97741.44
2023-02-19T04:06:10.473Z,97730.63
2023-02-19T04:08:39.769Z,97710.19
2023-02-19T04:11:09.040Z,97704.41
2023-02-19T04:13:45.865Z,97492.81
2023-02-19T04:16:21.842Z,97722.75
2023-02-19T04:18:54.456Z,97493.31
2023-02-19T04:21:23.043Z,97623.56
2023-02-19T04:23:50.139Z,97726.81
2023-02-19T04:26:19.572Z,97653.97
2023-02-19T04:28:47.037Z,97728.81
2023-02-19T04:31:14.617Z,97727.25
2023-02-19T04:33:41.666Z,97630.97
2023-02-19T04:36:10.994Z,97726.38
2023-02-19T04:38:38.214Z,97708.63
2023-02-19T04:41:05.109Z,97689.81
2023-02-19T04:43:31.825Z,97697.00
2023-02-19T04:46:02.440Z,97700.38
2023-02-19T04:48:29.598Z,97722.41
2023-02-19T04:50:56.387Z,97708.22
2023-02-19T04:53:23.479Z,97668.50
2023-02-19T04:55:53.317Z,97677.81
2023-02-19T04:58:21.182Z,97727.28
2023-02-19T05:00:51.872Z,97684.50
2023-02-19T05:03:18.643Z,97751.53
2023-02-19T05:05:45.322Z,97697.28
2023-02-19T05:08:12.081Z,97735.19
2023-02-19T05:10:38.788Z,97734.03
2023-02-19T05:13:05.441Z,97750.28
2023-02-19T05:15:32.182Z,97766.03
2023-02-19T05:17:58.950Z,97727.44
2023-02-19T05:20:25.568Z,97679.03
2023-02-19T05:22:52.273Z,97665.16
2023-02-19T05:25:19.033Z,97721.84
2023-02-19T05:27:45.710Z,97646.22
2023-02-19T05:30:13.198Z,97647.06
2023-02-19T05:32:39.993Z,97662.78
2023-02-19T05:35:06.936Z,97651.16
2023-02-19T05:37:33.641Z,97755.63
2023-02-19T05:40:00.382Z,97724.69
2023-02-19T05:42:27.041Z,97735.56
2023-02-19T05:44:53.904Z,97717.94
2023-02-19T05:47:20.555Z,97734.22
2023-02-19T05:49:47.223Z,97650.84
2023-02-19T05:52:16.816Z,97745.63
2023-02-19T05:54:43.513Z,97694.84
2023-02-19T05:57:10.230Z,97699.97
2023-02-19T05:59:36.990Z,97716.38
2023-02-19T06:02:03.690Z,97681.97
2023-02-19T06:04:30.353Z,97632.94
2023-02-19T06:06:57.414Z,97726.94
2023-02-19T06:09:24.097Z,97746.75
2023-02-19T06:11:50.788Z,97753.34
2023-02-19T06:14:17.557Z,97716.19
2023-02-19T06:16:44.303Z,97678.97
2023-02-19T06:19:11.056Z,97739.72
2023-02-19T06:21:37.857Z,97730.06
2023-02-19T06:24:06.744Z,97666.63
2023-02-19T06:26:33.820Z,97759.94
2023-02-19T06:29:00.617Z,97727.44
2023-02-19T06:31:27.472Z,97766.22
2023-02-19T06:33:55.079Z,97689.47
2023-02-19T06:36:22.648Z,97652.44
2023-02-19T06:38:49.633Z,97721.56
2023-02-19T06:41:16.931Z,97727.44
2023-02-19T06:43:43.862Z,97752.63
2023-02-19T06:46:12.221Z,97747.88
2023-02-19T06:48:40.330Z,97761.09
2023-02-19T06:51:07.551Z,97759.81
2023-02-19T06:53:34.311Z,97676.06
2023-02-19T06:56:06.801Z,97688.41
2023-02-19T06:58:34.034Z,97571.81
2023-02-19T07:01:01.097Z,97752.88
2023-02-19T07:03:28.154Z,97678.91
2023-02-19T07:05:54.911Z,97724.50
2023-02-19T07:08:21.590Z,97724.09
2023-02-19T07:10:58.558Z,97764.78
2023-02-19T07:13:29.727Z,97719.38
2023-02-19T07:16:05.730Z,97748.09
2023-02-19T07:18:32.562Z,97733.09
2023-02-19T07:21:11.107Z,97751.25
2023-02-19T07:23:38.471Z,97723.97
2023-02-19T07:26:09.456Z,97634.00
2023-02-19T07:28:36.195Z,97639.94
2023-02-19T07:31:04.889Z,97745.56
2023-02-19T07:33:35.447Z,97746.03
2023-02-19T07:36:08.769Z,97748.84
2023-02-19T07:38:36.186Z,97731.69
2023-02-19T07:41:05.255Z,97743.69
2023-02-19T07:43:34.426Z,97749.44
2023-02-19T07:46:08.546Z,97757.69
2023-02-19T07:48:36.692Z,97571.84
2023-02-19T07:51:05.652Z,97754.50
2023-02-19T07:53:34.650Z,97757.34
2023-02-19T07:56:06.896Z,97758.16
2023-02-19T07:58:34.498Z,97774.09
2023-02-19T08:01:10.682Z,97735.84
2023-02-19T08:03:38.579Z,97770.28
2023-02-19T08:06:06.136Z,97688.47
2023-02-19T08:08:32.872Z,97746.28
2023-02-19T08:11:23.058Z,97767.06
2023-02-19T08:13:51.317Z,97771.91
2023-02-19T08:16:29.710Z,97764.47
2023-02-19T08:19:00.255Z,97777.66
2023-02-19T08:21:26.991Z,97759.91
2023-02-19T08:23:53.952Z,97706.75
2023-02-19T08:26:20.691Z,97652.13
2023-02-19T08:28:48.744Z,97668.38
2023-02-19T08:31:16.091Z,97624.56
2023-02-19T08:33:42.872Z,97762.75
2023-02-19T08:36:10.991Z,97635.63
2023-02-19T08:38:38.553Z,97736.84
2023-02-19T08:41:07.387Z,97775.16
2023-02-19T08:43:35.233Z,97771.88
2023-02-19T08:46:02.486Z,97726.03
2023-02-19T08:48:29.415Z,97731.16
2023-02-19T08:51:05.108Z,97772.63
2023-02-19T08:53:32.972Z,97720.13
2023-02-19T08:56:05.503Z,97746.28
2023-02-19T08:58:33.116Z,97771.16
2023-02-19T09:01:00.169Z,97701.91
2023-02-19T09:03:27.013Z,97726.94
2023-02-19T09:05:53.888Z,97678.81
2023-02-19T09:08:20.611Z,97775.47
2023-02-19T09:11:01.539Z,97782.38
2023-02-19T09:13:28.339Z,97774.59
2023-02-19T09:15:57.086Z,97768.09
2023-02-19T09:18:25.537Z,97726.41
2023-02-19T09:20:52.382Z,97769.84
2023-02-19T09:23:19.156Z,97775.28
2023-02-19T09:25:46.050Z,97751.00
2023-02-19T09:28:12.994Z,97750.94
2023-02-19T09:30:39.967Z,97769.81
2023-02-19T09:33:06.989Z,97748.31
2023-02-19T09:35:33.686Z,97754.72
2023-02-19T09:38:02.052Z,97744.09
2023-02-19T09:40:30.365Z,97770.72
2023-02-19T09:42:57.664Z,97764.47
2023-02-19T09:45:26.319Z,97695.78
2023-02-19T09:47:59.590Z,97770.41
2023-02-19T09:50:36.215Z,97720.91
2023-02-19T09:53:11.961Z,97776.38
2023-02-19T09:55:42.476Z,97761.69
2023-02-19T09:58:27.365Z,97796.13
2023-02-19T10:00:56.667Z,97739.59
2023-02-19T10:03:31.786Z,97660.44
2023-02-19T10:06:01.830Z,97773.47
2023-02-19T10:08:32.850Z,97789.09
2023-02-19T10:11:02.789Z,97721.94
2023-02-19T10:13:34.058Z,97795.97
2023-02-19T10:16:02.976Z,97754.63
2023-02-19T10:18:37.794Z,97773.97
2023-02-19T10:21:05.879Z,97743.53
2023-02-19T10:23:33.566Z,97779.84
2023-02-19T10:26:00.720Z,97739.88
2023-02-19T10:28:34.016Z,97741.38
2023-02-19T10:31:03.372Z,97782.09
2023-02-19T10:33:30.541Z,97723.31
2023-02-19T10:35:58.477Z,97784.44
2023-02-19T10:38:29.398Z,97791.09
2023-02-19T10:41:04.535Z,97720.88
2023-02-19T10:43:35.482Z,97671.56
2023-02-19T10:46:06.582Z,97743.13
2023-02-19T10:48:47.344Z,97690.03
2023-02-19T10:51:21.760Z,97767.94
2023-02-19T10:53:51.924Z,97709.63
2023-02-19T10:56:25.764Z,97769.69
2023-02-19T10:58:52.841Z,97726.03
2023-02-19T11:01:25.701Z,97756.16
2023-02-19T11:04:13.424Z,97705.75
2023-02-19T11:06:40.373Z,97720.63
2023-02-19T11:09:25.688Z,97721.31
2023-02-19T11:11:54.307Z,97669.59
2023-02-19T11:14:24.194Z,97737.03
2023-02-19T11:16:56.366Z,97758.72
2023-02-19T11:19:39.372Z,97699.69
2023-02-19T11:22:30.805Z,97760.38
2023-02-19T11:25:06.581Z,97758.13
2023-02-19T11:27:34.177Z,97778.75
2023-02-19T11:30:40.189Z,97769.97
2023-02-19T11:33:25.295Z,97773.63
2023-02-19T11:36:20.839Z,97756.44
2023-02-19T11:38:47.684Z,97792.88
2023-02-19T11:41:32.180Z,97774.41
2023-02-19T11:44:34.293Z,97726.63
2023-02-19T11:47:47.151Z,97794.41
2023-02-19T11:50:23.016Z,97768.22
2023-02-19T11:52:58.958Z,97775.16
2023-02-19T11:55:46.933Z,97790.81
2023-02-19T11:58:32.220Z,97779.53
2023-02-19T12:01:13.225Z,97397.75
2023-02-19T12:03:55.661Z,97772.81
2023-02-19T12:06:25.373Z,97769.56
2023-02-19T12:09:20.108Z,97801.47
2023-02-19T12:12:09.775Z,97612.84
2023-02-19T12:14:55.609Z,97771.53
2023-02-19T12:17:34.492Z,97760.25
2023-02-19T12:20:10.612Z,97783.78
2023-02-19T12:23:15.749Z,97741.22
2023-02-19T12:26:02.961Z,97758.00
2023-02-19T12:28:38.932Z,97767.16
2023-02-19T12:31:33.060Z,97794.31
2023-02-19T12:34:09.013Z,97783.13
2023-02-19T12:36:39.342Z,97740.22
2023-02-19T12:39:25.714Z,97791.22
2023-02-19T12:42:13.521Z,97793.16
2023-02-19T12:44:56.180Z,97765.50
2023-02-19T12:47:31.101Z,97785.56
2023-02-19T12:50:13.038Z,97788.66
2023-02-19T12:52:42.624Z,97798.31
2023-02-19T12:55:41.492Z,97803.84
2023-02-19T12:58:14.483Z,97780.00
2023-02-19T13:00:50.309Z,97783.88
2023-02-19T13:03:25.671Z,97768.13
2023-02-19T13:06:34.927Z,97802.47
2023-02-19T13:09:34.704Z,97788.47
2023-02-19T13:12:11.591Z,97762.88
2023-02-19T13:14:48.730Z,97775.72
2023-02-19T13:17:28.664Z,97794.13
2023-02-19T13:20:09.377Z,97792.63
2023-02-19T13:23:01.710Z,97793.91
2023-02-19T13:25:44.674Z,97797.56
2023-02-19T13:28:42.200Z,97720.25
2023-02-19T13:31:32.149Z,97828.06
2023-02-19T13:34:08.006Z,97820.75
2023-02-19T13:36:36.228Z,97832.38
2023-02-19T13:39:06.415Z,97801.16
2023-02-19T13:41:55.307Z,97808.22
2023-02-19T13:44:27.403Z,97834.50
2023-02-19T13:46:54.302Z,97838.97
2023-02-19T13:49:31.510Z,97844.03
2023-02-19T13:52:01.151Z,97782.97
2023-02-19T13:54:30.610Z,97820.81
2023-02-19T13:57:22.520Z,97817.09
2023-02-19T13:59:53.599Z,97820.34
2023-02-19T14:02:20.354Z,97815.75
2023-02-19T14:05:24.090Z,97795.25
2023-02-19T14:07:55.540Z,97817.72
2023-02-19T14:10:51.780Z,97823.34
2023-02-19T14:13:47.756Z,97812.81
2023-02-19T14:16:50.307Z,97805.75
2023-02-19T14:19:42.784Z,97815.34
2023-02-19T14:22:52.730Z,97828.34
2023-02-19T14:25:27.617Z,97796.44
2023-02-19T14:28:00.489Z,97701.44
2023-02-19T14:30:28.475Z,97800.56
2023-02-19T14:33:09.754Z,97826.53
2023-02-19T14:35:45.302Z,97788.75
2023-02-19T14:38:32.636Z,97830.72
2023-02-19T14:41:00.374Z,97754.91
2023-02-19T14:43:28.738Z,97766.34
2023-02-19T14:46:00.315Z,97679.81
2023-02-19T14:48:37.860Z,97807.84
2023-02-19T14:51:11.925Z,97827.03
2023-02-19T14:53:44.208Z,97881.22
2023-02-19T14:56:23.879Z,97836.13
2023-02-19T14:59:23.292Z,97878.53
2023-02-19T15:01:58.612Z,97882.09
2023-02-19T15:04:29.207Z,97907.97
2023-02-19T15:06:57.089Z,97890.63
2023-02-19T15:09:41.034Z,97858.47
2023-02-19T15:12:08.455Z,97887.69
2023-02-19T15:14:35.335Z,97891.63
2023-02-19T15:17:08.009Z,97797.56
2023-02-19T15:19:36.371Z,97694.78
2023-02-19T15:22:03.504Z,97885.97
2023-02-19T15:24:30.523Z,97891.50
2023-02-19T15:26:57.680Z,97897.22
2023-02-19T15:29:27.404Z,97797.84
2023-02-19T15:31:59.760Z,97909.00
2023-02-19T15:34:29.080Z,97889.59
2023-02-19T15:37:00.201Z,97892.53
2023-02-19T15:39:47.363Z,97894.34
2023-02-19T15:42:24.152Z,97893.75
2023-02-19T15:44:55.409Z,97897.50
2023-02-19T15:47:25.091Z,97902.00
2023-02-19T15:50:15.187Z,97918.94
2023-02-19T15:52:45.911Z,97806.25
2023-02-19T15:55:22.471Z,97956.47
2023-02-19T15:58:05.940Z,97913.22
2023-02-19T16:00:46.540Z,97950.97
2023-02-19T16:03:19.675Z,97914.28
2023-02-19T16:05:57.529Z,97877.06
2023-02-19T16:08:32.571Z,97916.09
2023-02-19T16:11:02.985Z,97707.34
2023-02-19T16:13:31.193Z,97916.31
2023-02-19T16:16:03.685Z,97865.47
2023-02-19T16:18:31.172Z,97923.16
2023-02-19T16:20:58.468Z,97921.41
2023-02-19T16:23:27.368Z,97871.16
2023-02-19T16:26:00.222Z,97939.31
2023-02-19T16:28:29.739Z,97946.09
2023-02-19T16:31:02.168Z,97938.41
2023-02-19T16:33:53.403Z,97939.84
2023-02-19T16:36:32.545Z,97935.41
2023-02-19T16:39:08.375Z,97933.91
2023-02-19T16:42:03.908Z,97929.47
2023-02-19T16:44:31.372Z,97840.00
2023-02-19T16:47:03.718Z,97868.91
2023-02-19T16:49:30.933Z,97917.06
2023-02-19T16:52:04.200Z,97898.84
2023-02-19T16:54:31.324Z,97870.88
2023-02-19T16:56:58.157Z,97861.94
2023-02-19T16:59:24.888Z,97907.28
2023-02-19T17:01:51.817Z,97904.28
2023-02-19T17:04:18.756Z,97965.41
2023-02-19T17:06:47.467Z,97910.31
2023-02-19T17:09:14.259Z,97866.59
2023-02-19T17:11:41.164Z,97953.75
2023-02-19T17:14:08.335Z,97943.53
2023-02-19T17:16:40.387Z,97946.78
2023-02-19T17:19:16.815Z,97920.97
2023-02-19T17:21:45.215Z,97942.19
2023-02-19T17:24:12.724Z,97956.56
2023-02-19T17:26:39.594Z,97919.16
2023-02-19T17:29:08.438Z,97715.16
2023-02-19T17:31:35.392Z,97947.16
2023-02-19T17:34:02.213Z,97938.63
2023-02-19T17:36:31.624Z,97968.00
2023-02-19T17:39:00.259Z,97961.28
2023-02-19T17:41:27.693Z,97963.59
2023-02-19T17:43:54.619Z,97920.53
2023-02-19T17:46:24.318Z,97952.91
2023-02-19T17:48:51.258Z,97808.75
2023-02-19T17:51:18.171Z,97885.56
2023-02-19T17:53:46.591Z,97887.00
2023-02-19T17:56:28.092Z,97933.91
2023-02-19T17:58:56.845Z,97920.16
2023-02-19T18:01:24.563Z,97931.50
2023-02-19T18:03:52.644Z,97818.66
2023-02-19T18:06:20.615Z,97923.81
2023-02-19T18:08:49.676Z,97894.25
2023-02-19T18:11:17.196Z,97961.94
2023-02-19T18:13:44.273Z,97953.19
2023-02-19T18:16:15.686Z,97976.47
2023-02-19T18:18:43.821Z,97964.16
2023-02-19T18:21:13.134Z,97966.91
2023-02-19T18:23:40.934Z,97956.06
2023-02-19T18:26:11.512Z,97951.13
2023-02-19T18:28:39.048Z,97949.38
2023-02-19T18:31:06.255Z,97951.94
2023-02-19T18:33:35.207Z,97963.00
2023-02-19T18:36:03.154Z,97967.44
2023-02-19T18:38:30.682Z,97982.13
2023-02-19T18:40:59.307Z,97973.84
2023-02-19T18:43:26.688Z,97919.91
2023-02-19T18:45:53.795Z,97967.16
2023-02-19T18:48:20.856Z,97954.53
2023-02-19T18:50:47.749Z,97936.56
2023-02-19T18:53:14.661Z,97879.94
2023-02-19T18:55:41.657Z,97963.16
2023-02-19T18:58:10.759Z,97969.44
2023-02-19T19:00:37.465Z,97933.31
2023-02-19T19:03:05.037Z,97975.69
2023-02-19T19:05:32.367Z,97980.97
2023-02-19T19:07:59.675Z,97987.91
2023-02-19T19:10:27.329Z,97961.50
2023-02-19T19:12:54.656Z,97963.22
2023-02-19T19:15:24.799Z,97850.09
2023-02-19T19:17:52.565Z,97986.41
2023-02-19T19:20:21.728Z,97964.50
2023-02-19T19:22:50.757Z,97987.97
2023-02-19T19:25:19.172Z,97917.63
2023-02-19T19:27:46.191Z,97944.53
2023-02-19T19:30:13.760Z,97908.88
2023-02-19T19:32:40.905Z,97992.56
2023-02-19T19:35:08.392Z,98013.81
2023-02-19T19:37:35.423Z,97995.94
2023-02-19T19:40:03.841Z,97997.38
2023-02-19T19:42:30.894Z,97976.59
2023-02-19T19:44:57.981Z,98003.91
2023-02-19T19:47:24.780Z,98001.56
2023-02-19T19:49:51.674Z,97934.38
2023-02-19T19:52:18.441Z,97956.03
2023-02-19T19:54:45.501Z,98001.34
2023-02-19T19:57:12.454Z,98007.38
2023-02-19T19:59:39.584Z,98004.81
2023-02-19T20:02:07.736Z,98018.50
2023-02-19T20:04:34.856Z,98017.00
2023-02-19T20:07:02.328Z,98014.38
2023-02-19T20:09:29.323Z,98036.44
2023-02-19T20:11:56.999Z,97981.59
2023-02-19T20:14:25.370Z,97972.00
2023-02-19T20:16:53.446Z,97988.72
2023-02-19T20:19:21.189Z,97988.19
2023-02-19T20:21:50.131Z,97999.47
2023-02-19T20:24:24.085Z,98021.13
2023-02-19T20:26:53.697Z,98038.88
2023-02-19T20:29:20.590Z,97991.69
2023-02-19T20:31:50.048Z,98067.91
2023-02-19T20:34:17.750Z,97980.06
2023-02-19T20:36:46.731Z,98016.53
2023-02-19T20:39:14.716Z,97941.94
2023-02-19T20:41:49.959Z,98039.34
2023-02-19T20:44:18.255Z,98042.66
2023-02-19T20:46:48.405Z,98011.78
2023-02-19T20:49:17.668Z,98057.91
2023-02-19T20:51:55.883Z,98023.66
2023-02-19T20:54:26.305Z,98044.22
2023-02-19T20:56:54.927Z,98044.97
2023-02-19T20:59:24.728Z,98063.00
2023-02-19T21:01:52.081Z,98039.38
2023-02-19T21:04:21.847Z,98046.16
2023-02-19T21:06:50.388Z,98042.63
2023-02-19T21:09:17.334Z,98053.59
2023-02-19T21:11:44.619Z,98014.34
2023-02-19T21:14:11.493Z,97865.88
2023-02-19T21:16:38.441Z,98028.63
2023-02-19T21:19:05.580Z,98023.31
2023-02-19T21:21:34.380Z,97960.16
2023-02-19T21:24:01.876Z,98017.88
2023-02-19T21:26:39.915Z,98042.91
2023-02-19T21:29:08.281Z,98069.38
2023-02-19T21:31:40.182Z,98067.59
2023-02-19T21:34:08.463Z,98048.78
2023-02-19T21:36:35.815Z,98092.66
2023-02-19T21:39:03.398Z,98077.88
2023-02-19T21:41:30.144Z,98083.22
2023-02-19T21:43:57.528Z,98077.41
2023-02-19T21:46:25.166Z,98060.03
2023-02-19T21:48:54.039Z,98092.47
2023-02-19T21:51:33.251Z,97952.84
2023-02-19T21:54:00.609Z,98099.22
2023-02-19T21:56:31.619Z,98105.53
2023-02-19T21:58:59.018Z,98103.66
2023-02-19T22:01:40.464Z,98061.50
2023-02-19T22:04:10.725Z,98062.75
2023-02-19T22:06:39.594Z,98086.66
2023-02-19T22:09:08.093Z,98003.44
2023-02-19T22:11:35.564Z,98116.25
2023-02-19T22:14:02.742Z,98120.47
2023-02-19T22:16:29.807Z,98109.09
2023-02-19T22:18:59.026Z,98124.38
2023-02-19T22:21:28.841Z,97991.91
2023-02-19T22:23:55.976Z,98061.00
2023-02-19T22:26:25.720Z,98108.88
2023-02-19T22:28:52.564Z,98061.16
2023-02-19T22:31:21.731Z,98038.66
2023-02-19T22:33:49.031Z,98136.13
2023-02-19T22:36:22.205Z,98113.84
2023-02-19T22:38:49.557Z,98129.44
2023-02-19T22:41:17.718Z,98086.56
2023-02-19T22:43:44.906Z,98143.03
2023-02-19T22:46:23.553Z,98136.06
2023-02-19T22:48:50.783Z,98076.91
2023-02-19T22:51:20.251Z,98132.53
2023-02-19T22:53:48.895Z,98143.78
2023-02-19T22:56:20.693Z,98148.44
2023-02-19T22:58:47.616Z,98139.88
2023-02-19T23:01:15.237Z,98101.84
2023-02-19T23:03:56.901Z,98124.44
2023-02-19T23:06:29.428Z,98119.16
2023-02-19T23:09:02.930Z,98135.69
2023-02-19T23:11:33.194Z,98052.34
2023-02-19T23:14:00.117Z,98042.34
2023-02-19T23:16:27.087Z,98145.41
2023-02-19T23:18:54.542Z,98178.56
2023-02-19T23:21:22.092Z,98115.38
2023-02-19T23:23:49.412Z,98105.63
2023-02-19T23:26:17.230Z,98098.25
2023-02-19T23:28:44.695Z,98091.47
2023-02-19T23:31:12.876Z,98157.41
2023-02-19T23:33:39.828Z,98137.03
2023-02-19T23:36:07.538Z,98150.28
2023-02-19T23:38:34.404Z,98132.94
2023-02-19T23:41:01.600Z,98142.50
2023-02-19T23:43:28.651Z,98145.28
2023-02-19T23:45:55.465Z,97987.78
2023-02-19T23:48:22.271Z,97949.28
2023-02-19T23:50:49.025Z,98130.41
2023-02-19T23:53:15.723Z,98152.72
2023-02-19T23:55:42.565Z,98097.19
2023-02-19T23:58:09.389Z,98144.84
